sensor_id;sensor_type;location;lat;lon;timestamp;pressure;altitude;pressure_sealevel;temperature;humidity
21817;BME280;13247;47.504;7.382;2023-01-26T00:00:14;97862.59;;;2.38;100.00
21817;BME280;13247;47.504;7.382;2023-01-26T00:02:59;97859.06;;;2.27;100.00
21817;BME280;13247;47.504;7.382;2023-01-26T00:05:44;97857.19;;;2.12;100.00
21817;BME280;13247;47.504;7.382;2023-01-26T00:08:29;97850.22;;;2.05;100.00
21817;BME280;13247;47.504;7.382;2023-01-26T00:11:15;97856.41;;;2.22;100.00
21817;BME280;13247;47.504;7.382;2023-01-26T00:14:00;97850.38;;;2.20;100.00
21817;BME280;13247;47.504;7.382;2023-01-26T00:16:45;97850.44;;;2.29;100.00
21817;BME280;13247;47.504;7.382;2023-01-26T00:19:29;97834.94;;;2.32;100.00
21817;BME280;13247;47.504;7.382;2023-01-26T00:22:14;97828.06;;;2.34;100.00
21817;BME280;13247;47.504;7.382;2023-01-26T00:24:59;97829.66;;;2.17;100.00
21817;BME280;13247;47.504;7.382;2023-01-26T00:27:43;97834.50;;;1.86;100.00
21817;BME280;13247;47.504;7.382;2023-01-26T00:30:28;97829.34;;;1.89;100.00
21817;BME280;13247;47.504;7.382;2023-01-26T00:33:13;97825.06;;;1.89;100.00
21817;BME280;13247;47.504;7.382;2023-01-26T00:35:58;97824.22;;;1.93;100.00
21817;BME280;13247;47.504;7.382;2023-01-26T00:38:42;97824.38;;;2.08;100.00
21817;BME280;13247;47.504;7.382;2023-01-26T00:41:27;97819.16;;;2.04;100.00
21817;BME280;13247;47.504;7.382;2023-01-26T00:44:31;97814.53;;;1.73;100.00
21817;BME280;13247;47.504;7.382;2023-01-26T00:47:17;97824.13;;;1.81;100.00
21817;BME280;13247;47.504;7.382;2023-01-26T00:50:02;97814.75;;;1.94;100.00
21817;BME280;13247;47.504;7.382;2023-01-26T00:52:47;97817.34;;;1.94;100.00
21817;BME280;13247;47.504;7.382;2023-01-26T00:55:31;97812.84;;;1.75;100.00
21817;BME280;13247;47.504;7.382;2023-01-26T00:58:16;97807.78;;;1.87;100.00
21817;BME280;13247;47.504;7.382;2023-01-26T01:01:01;97814.59;;;1.79;100.00
21817;BME280;13247;47.504;7.382;2023-01-26T01:03:46;97809.50;;;1.86;100.00
21817;BME280;13247;47.504;7.382;2023-01-26T01:06:31;97802.81;;;2.05;100.00
21817;BME280;13247;47.504;7.382;2023-01-26T01:09:16;97801.66;;;1.77;100.00
21817;BME280;13247;47.504;7.382;2023-01-26T01:12:01;97803.75;;;2.14;100.00
21817;BME280;13247;47.504;7.382;2023-01-26T01:14:46;97794.91;;;1.91;100.00
21817;BME280;13247;47.504;7.382;2023-01-26T01:17:31;97790.69;;;1.99;100.00
21817;BME280;13247;47.504;7.382;2023-01-26T01:20:16;97788.97;;;1.98;100.00
21817;BME280;13247;47.504;7.382;2023-01-26T01:23:01;97785.19;;;1.68;100.00
21817;BME280;13247;47.504;7.382;2023-01-26T01:25:46;97781.88;;;1.82;100.00
21817;BME280;13247;47.504;7.382;2023-01-26T01:28:40;97787.00;;;1.78;100.00
21817;BME280;13247;47.504;7.382;2023-01-26T01:31:25;97790.47;;;1.77;100.00
21817;BME280;13247;47.504;7.382;2023-01-26T01:34:09;97795.50;;;1.65;100.00
21817;BME280;13247;47.504;7.382;2023-01-26T01:36:54;97795.63;;;1.75;100.00
21817;BME280;13247;47.504;7.382;2023-01-26T01:39:38;97791.34;;;1.77;100.00
21817;BME280;13247;47.504;7.382;2023-01-26T01:42:24;97786.88;;;1.63;100.00
21817;BME280;13247;47.504;7.382;2023-01-26T01:45:35;97778.41;;;1.79;100.00
21817;BME280;13247;47.504;7.382;2023-01-26T01:51:42;97776.56;;;1.67;100.00
21817;BME280;13247;47.504;7.382;2023-01-26T01:55:17;97774.84;;;1.69;100.00
21817;BME280;13247;47.504;7.382;2023-01-26T01:57:54;97775.06;;;1.90;100.00
21817;BME280;13247;47.504;7.382;2023-01-26T02:00:43;97766.44;;;1.88;100.00
21817;BME280;13247;47.504;7.382;2023-01-26T02:03:29;97763.16;;;2.07;100.00
21817;BME280;13247;47.504;7.382;2023-01-26T02:06:21;97769.28;;;2.18;100.00
21817;BME280;13247;47.504;7.382;2023-01-26T02:09:09;97766.63;;;2.08;100.00
21817;BME280;13247;47.504;7.382;2023-01-26T02:12:18;97769.09;;;1.99;100.00
21817;BME280;13247;47.504;7.382;2023-01-26T02:15:04;97766.69;;;2.15;100.00
21817;BME280;13247;47.504;7.382;2023-01-26T02:17:51;97749.59;;;2.35;100.00
21817;BME280;13247;47.504;7.382;2023-01-26T02:26:24;97740.78;;;2.12;100.00
21817;BME280;13247;47.504;7.382;2023-01-26T02:29:10;97741.72;;;2.20;100.00
21817;BME280;13247;47.504;7.382;2023-01-26T02:31:55;97740.06;;;2.30;100.00
21817;BME280;13247;47.504;7.382;2023-01-26T02:34:41;97735.81;;;2.36;100.00
21817;BME280;13247;47.504;7.382;2023-01-26T02:37:25;97736.69;;;2.38;100.00
21817;BME280;13247;47.504;7.382;2023-01-26T02:40:35;97722.97;;;2.53;100.00
21817;BME280;13247;47.504;7.382;2023-01-26T02:43:24;97723.75;;;2.42;100.00
21817;BME280;13247;47.504;7.382;2023-01-26T02:46:09;97721.09;;;2.32;100.00
21817;BME280;13247;47.504;7.382;2023-01-26T02:48:54;97723.56;;;2.16;100.00
21817;BME280;13247;47.504;7.382;2023-01-26T02:51:58;97726.06;;;2.04;100.00
21817;BME280;13247;47.504;7.382;2023-01-26T02:54:43;97727.00;;;2.12;100.00
21817;BME280;13247;47.504;7.382;2023-01-26T02:57:47;97720.19;;;2.24;100.00
21817;BME280;13247;47.504;7.382;2023-01-26T03:00:35;97718.50;;;2.28;100.00
21817;BME280;13247;47.504;7.382;2023-01-26T03:03:26;97717.63;;;2.30;100.00
21817;BME280;13247;47.504;7.382;2023-01-26T03:06:25;97713.41;;;2.38;100.00
21817;BME280;13247;47.504;7.382;2023-01-26T03:09:09;97711.63;;;2.30;100.00
21817;BME280;13247;47.504;7.382;2023-01-26T03:11:54;97699.66;;;2.47;100.00
21817;BME280;13247;47.504;7.382;2023-01-26T03:14:38;97703.84;;;2.34;100.00
21817;BME280;13247;47.504;7.382;2023-01-26T03:17:23;97704.91;;;2.58;100.00
21817;BME280;13247;47.504;7.382;2023-01-26T03:20:08;97702.22;;;2.46;100.00
21817;BME280;13247;47.504;7.382;2023-01-26T03:23:12;97694.44;;;2.46;100.00
21817;BME280;13247;47.504;7.382;2023-01-26T03:26:15;97689.25;;;2.36;100.00
21817;BME280;13247;47.504;7.382;2023-01-26T03:29:19;97683.19;;;2.37;100.00
21817;BME280;13247;47.504;7.382;2023-01-26T03:32:04;97690.81;;;2.16;100.00
21817;BME280;13247;47.504;7.382;2023-01-26T03:34:49;97689.97;;;2.20;100.00
21817;BME280;13247;47.504;7.382;2023-01-26T03:37:33;97692.59;;;2.25;100.00
21817;BME280;13247;47.504;7.382;2023-01-26T03:40:20;97690.88;;;2.27;100.00
21817;BME280;13247;47.504;7.382;2023-01-26T03:43:23;97685.59;;;2.13;100.00
21817;BME280;13247;47.504;7.382;2023-01-26T03:46:27;97680.56;;;2.33;100.00
21817;BME280;13247;47.504;7.382;2023-01-26T03:49:30;97680.75;;;2.63;100.00
21817;BME280;13247;47.504;7.382;2023-01-26T03:52:34;97679.00;;;2.59;100.00
21817;BME280;13247;47.504;7.382;2023-01-26T03:55:37;97681.59;;;2.62;100.00
21817;BME280;13247;47.504;7.382;2023-01-26T03:58:40;97673.75;;;2.46;100.00
21817;BME280;13247;47.504;7.382;2023-01-26T04:01:26;97670.31;;;2.47;100.00
21817;BME280;13247;47.504;7.382;2023-01-26T04:04:16;97670.28;;;2.42;100.00
21817;BME280;13247;47.504;7.382;2023-01-26T04:07:19;97670.28;;;2.45;100.00
21817;BME280;13247;47.504;7.382;2023-01-26T04:10:23;97672.81;;;2.34;100.00
21817;BME280;13247;47.504;7.382;2023-01-26T04:13:08;97669.41;;;2.43;100.00
21817;BME280;13247;47.504;7.382;2023-01-26T04:16:11;97676.13;;;2.12;100.00
21817;BME280;13247;47.504;7.382;2023-01-26T04:19:15;97674.97;;;1.76;100.00
21817;BME280;13247;47.504;7.382;2023-01-26T04:22:18;97670.09;;;2.09;100.00
21817;BME280;13247;47.504;7.382;2023-01-26T04:25:03;97665.75;;;2.06;100.00
21817;BME280;13247;47.504;7.382;2023-01-26T04:27:48;97653.75;;;2.17;100.00
21817;BME280;13247;47.504;7.382;2023-01-26T04:30:32;97657.22;;;2.22;100.00
21817;BME280;13247;47.504;7.382;2023-01-26T04:33:17;97653.00;;;2.33;100.00
21817;BME280;13247;47.504;7.382;2023-01-26T04:36:06;97656.50;;;2.45;100.00
21817;BME280;13247;47.504;7.382;2023-01-26T04:38:52;97648.66;;;2.29;100.00
21817;BME280;13247;47.504;7.382;2023-01-26T04:41:37;97638.38;;;2.38;100.00
21817;BME280;13247;47.504;7.382;2023-01-26T04:44:21;97633.25;;;2.51;100.00
21817;BME280;13247;47.504;7.382;2023-01-26T04:47:06;97634.84;;;2.29;100.00
21817;BME280;13247;47.504;7.382;2023-01-26T04:49:51;97641.63;;;2.10;100.00
21817;BME280;13247;47.504;7.382;2023-01-26T04:52:35;97631.94;;;1.81;100.00
21817;BME280;13247;47.504;7.382;2023-01-26T04:55:20;97635.56;;;2.04;100.00
21817;BME280;13247;47.504;7.382;2023-01-26T04:58:04;97628.56;;;1.89;100.00
21817;BME280;13247;47.504;7.382;2023-01-26T05:00:56;97632.84;;;1.87;100.00
21817;BME280;13247;47.504;7.382;2023-01-26T05:03:41;97633.53;;;1.62;100.00
21817;BME280;13247;47.504;7.382;2023-01-26T05:06:26;97642.19;;;1.69;100.00
21817;BME280;13247;47.504;7.382;2023-01-26T05:09:11;97629.41;;;1.85;100.00
21817;BME280;13247;47.504;7.382;2023-01-26T05:11:55;97634.31;;;1.55;100.00
21817;BME280;13247;47.504;7.382;2023-01-26T05:15:00;97633.63;;;1.74;100.00
21817;BME280;13247;47.504;7.382;2023-01-26T05:17:44;97631.78;;;1.58;100.00
21817;BME280;13247;47.504;7.382;2023-01-26T05:20:30;97632.56;;;1.52;100.00
21817;BME280;13247;47.504;7.382;2023-01-26T05:23:14;97627.47;;;1.60;100.00
21817;BME280;13247;47.504;7.382;2023-01-26T05:25:59;97627.44;;;1.58;100.00
21817;BME280;13247;47.504;7.382;2023-01-26T05:28:44;97633.47;;;1.57;100.00
21817;BME280;13247;47.504;7.382;2023-01-26T05:31:29;97633.41;;;1.50;100.00
21817;BME280;13247;47.504;7.382;2023-01-26T05:34:13;97632.66;;;1.60;100.00
21817;BME280;13247;47.504;7.382;2023-01-26T05:36:58;97635.28;;;1.66;100.00
21817;BME280;13247;47.504;7.382;2023-01-26T05:39:42;97636.16;;;1.71;100.00
21817;BME280;13247;47.504;7.382;2023-01-26T05:42:27;97635.31;;;1.71;100.00
21817;BME280;13247;47.504;7.382;2023-01-26T05:45:11;97634.53;;;1.82;100.00
21817;BME280;13247;47.504;7.382;2023-01-26T05:47:56;97638.03;;;1.89;100.00
21817;BME280;13247;47.504;7.382;2023-01-26T05:50:40;97631.22;;;1.98;100.00
21817;BME280;13247;47.504;7.382;2023-01-26T05:53:25;97626.94;;;2.03;100.00
21817;BME280;13247;47.504;7.382;2023-01-26T05:56:09;97632.53;;;1.45;100.00
21817;BME280;13247;47.504;7.382;2023-01-26T05:58:54;97643.03;;;1.69;100.00
21817;BME280;13247;47.504;7.382;2023-01-26T06:01:38;97638.78;;;1.74;100.00
21817;BME280;13247;47.504;7.382;2023-01-26T06:04:23;97643.09;;;1.74;100.00
21817;BME280;13247;47.504;7.382;2023-01-26T06:07:09;97635.44;;;1.87;100.00
21817;BME280;13247;47.504;7.382;2023-01-26T06:09:54;97636.25;;;1.80;100.00
21817;BME280;13247;47.504;7.382;2023-01-26T06:12:39;97636.19;;;1.74;100.00
21817;BME280;13247;47.504;7.382;2023-01-26T06:15:25;97634.53;;;1.79;100.00
21817;BME280;13247;47.504;7.382;2023-01-26T06:18:09;97627.56;;;1.74;100.00
21817;BME280;13247;47.504;7.382;2023-01-26T06:20:58;97626.69;;;1.72;100.00
21817;BME280;13247;47.504;7.382;2023-01-26T06:23:44;97631.06;;;1.79;100.00
21817;BME280;13247;47.504;7.382;2023-01-26T06:26:29;97634.44;;;1.70;100.00
21817;BME280;13247;47.504;7.382;2023-01-26T06:29:13;97635.16;;;1.52;100.00
21817;BME280;13247;47.504;7.382;2023-01-26T06:31:58;97641.25;;;1.57;100.00
21817;BME280;13247;47.504;7.382;2023-01-26T06:34:43;97632.66;;;1.62;100.00
21817;BME280;13247;47.504;7.382;2023-01-26T06:37:27;97626.75;;;1.78;100.00
21817;BME280;13247;47.504;7.382;2023-01-26T06:40:12;97623.19;;;1.62;100.00
21817;BME280;13247;47.504;7.382;2023-01-26T06:42:57;97623.19;;;1.64;100.00
21817;BME280;13247;47.504;7.382;2023-01-26T06:45:42;97629.94;;;1.45;100.00
21817;BME280;13247;47.504;7.382;2023-01-26T06:48:28;97627.31;;;1.40;100.00
21817;BME280;13247;47.504;7.382;2023-01-26T06:54:04;97622.31;;;1.63;100.00
21817;BME280;13247;47.504;7.382;2023-01-26T06:56:49;97623.94;;;1.50;100.00
21817;BME280;13247;47.504;7.382;2023-01-26T06:59:33;97629.00;;;1.37;100.00
21817;BME280;13247;47.504;7.382;2023-01-26T07:02:20;97626.44;;;1.37;100.00
21817;BME280;13247;47.504;7.382;2023-01-26T07:05:05;97621.94;;;1.18;100.00
21817;BME280;13247;47.504;7.382;2023-01-26T07:07:50;97607.41;;;1.29;100.00
21817;BME280;13247;47.504;7.382;2023-01-26T07:10:36;97611.72;;;1.31;100.00
21817;BME280;13247;47.504;7.382;2023-01-26T07:13:22;97619.47;;;1.31;100.00
21817;BME280;13247;47.504;7.382;2023-01-26T07:16:11;97623.78;;;1.34;100.00
21817;BME280;13247;47.504;7.382;2023-01-26T07:18:56;97629.00;;;1.37;100.00
21817;BME280;13247;47.504;7.382;2023-01-26T07:21:41;97631.44;;;1.20;100.00
21817;BME280;13247;47.504;7.382;2023-01-26T07:24:25;97634.03;;;1.22;100.00
21817;BME280;13247;47.504;7.382;2023-01-26T07:27:10;97632.97;;;1.05;100.00
21817;BME280;13247;47.504;7.382;2023-01-26T07:29:55;97634.78;;;1.12;100.00
21817;BME280;13247;47.504;7.382;2023-01-26T07:32:40;97639.16;;;1.19;100.00
21817;BME280;13247;47.504;7.382;2023-01-26T07:35:24;97632.94;;;1.00;100.00
21817;BME280;13247;47.504;7.382;2023-01-26T07:38:10;97635.63;;;1.11;100.00
21817;BME280;13247;47.504;7.382;2023-01-26T07:40:55;97638.19;;;1.09;100.00
21817;BME280;13247;47.504;7.382;2023-01-26T07:43:40;97632.16;;;1.07;100.00
21817;BME280;13247;47.504;7.382;2023-01-26T07:46:25;97639.81;;;1.00;100.00
21817;BME280;13247;47.504;7.382;2023-01-26T07:49:10;97640.66;;;0.99;100.00
21817;BME280;13247;47.504;7.382;2023-01-26T07:51:55;97640.78;;;1.08;100.00
21817;BME280;13247;47.504;7.382;2023-01-26T07:54:40;97638.88;;;0.92;100.00
21817;BME280;13247;47.504;7.382;2023-01-26T07:57:25;97645.72;;;0.87;100.00
21817;BME280;13247;47.504;7.382;2023-01-26T08:00:10;97651.81;;;0.96;100.00
21817;BME280;13247;47.504;7.382;2023-01-26T08:02:55;97649.94;;;0.82;100.00
21817;BME280;13247;47.504;7.382;2023-01-26T08:05:39;97657.06;;;1.02;100.00
21817;BME280;13247;47.504;7.382;2023-01-26T08:08:26;97654.28;;;0.86;100.00
21817;BME280;13247;47.504;7.382;2023-01-26T08:11:12;97655.47;;;1.16;100.00
21817;BME280;13247;47.504;7.382;2023-01-26T08:13:56;97652.94;;;1.18;100.00
21817;BME280;13247;47.504;7.382;2023-01-26T08:16:41;97647.53;;;0.98;100.00
21817;BME280;13247;47.504;7.382;2023-01-26T08:19:25;97656.28;;;1.11;100.00
21817;BME280;13247;47.504;7.382;2023-01-26T08:22:10;97657.88;;;1.00;100.00
21817;BME280;13247;47.504;7.382;2023-01-26T08:24:55;97657.69;;;0.80;100.00
21817;BME280;13247;47.504;7.382;2023-01-26T08:27:40;97661.38;;;1.05;100.00
21817;BME280;13247;47.504;7.382;2023-01-26T08:30:24;97657.06;;;1.04;100.00
21817;BME280;13247;47.504;7.382;2023-01-26T08:33:09;97649.16;;;0.89;100.00
21817;BME280;13247;47.504;7.382;2023-01-26T08:36:00;97658.50;;;0.79;100.00
21817;BME280;13247;47.504;7.382;2023-01-26T08:38:46;97661.44;;;1.08;100.00
21817;BME280;13247;47.504;7.382;2023-01-26T08:41:30;97664.75;;;0.98;100.00
21817;BME280;13247;47.504;7.382;2023-01-26T08:44:16;97666.25;;;0.77;100.00
21817;BME280;13247;47.504;7.382;2023-01-26T08:47:03;97666.38;;;0.91;100.00
21817;BME280;13247;47.504;7.382;2023-01-26T08:49:48;97651.88;;;0.99;100.00
21817;BME280;13247;47.504;7.382;2023-01-26T08:52:33;97653.47;;;0.90;100.00
21817;BME280;13247;47.504;7.382;2023-01-26T08:55:17;97657.81;;;0.94;100.00
21817;BME280;13247;47.504;7.382;2023-01-26T08:58:02;97658.81;;;1.05;100.00
21817;BME280;13247;47.504;7.382;2023-01-26T09:00:47;97659.38;;;0.79;100.00
21817;BME280;13247;47.504;7.382;2023-01-26T09:03:32;97662.13;;;0.95;100.00
21817;BME280;13247;47.504;7.382;2023-01-26T09:06:17;97661.31;;;0.99;100.00
21817;BME280;13247;47.504;7.382;2023-01-26T09:09:02;97668.06;;;0.88;100.00
21817;BME280;13247;47.504;7.382;2023-01-26T09:11:46;97666.13;;;0.70;100.00
21817;BME280;13247;47.504;7.382;2023-01-26T09:14:31;97668.94;;;0.88;100.00
21817;BME280;13247;47.504;7.382;2023-01-26T09:17:15;97667.88;;;0.71;100.00
21817;BME280;13247;47.504;7.382;2023-01-26T09:20:00;97674.06;;;0.84;100.00
21817;BME280;13247;47.504;7.382;2023-01-26T09:22:45;97670.59;;;0.83;100.00
21817;BME280;13247;47.504;7.382;2023-01-26T09:25:30;97672.41;;;0.90;100.00
21817;BME280;13247;47.504;7.382;2023-01-26T09:28:15;97670.78;;;0.98;100.00
21817;BME280;13247;47.504;7.382;2023-01-26T09:31:04;97682.88;;;1.02;100.00
21817;BME280;13247;47.504;7.382;2023-01-26T09:33:49;97677.50;;;0.84;100.00
21817;BME280;13247;47.504;7.382;2023-01-26T09:36:34;97679.22;;;0.85;100.00
21817;BME280;13247;47.504;7.382;2023-01-26T09:39:18;97681.97;;;1.00;100.00
21817;BME280;13247;47.504;7.382;2023-01-26T09:54:37;97691.34;;;0.91;100.00
21817;BME280;13247;47.504;7.382;2023-01-26T10:00:23;97681.78;;;0.84;100.00
21817;BME280;13247;47.504;7.382;2023-01-26T10:03:16;97682.72;;;0.90;100.00
21817;BME280;13247;47.504;7.382;2023-01-26T10:08:49;97681.88;;;0.91;100.00
21817;BME280;13247;47.504;7.382;2023-01-26T10:11:39;97676.88;;;1.05;100.00
21817;BME280;13247;47.504;7.382;2023-01-26T10:14:39;97681.91;;;0.93;100.00
21817;BME280;13247;47.504;7.382;2023-01-26T10:17:34;97681.16;;;1.04;100.00
21817;BME280;13247;47.504;7.382;2023-01-26T10:20:40;97670.84;;;1.06;100.00
21817;BME280;13247;47.504;7.382;2023-01-26T10:23:37;97670.59;;;0.82;100.00
21817;BME280;13247;47.504;7.382;2023-01-26T10:26:29;97663.09;;;1.03;100.00
21817;BME280;13247;47.504;7.382;2023-01-26T10:29:14;97665.66;;;1.01;100.00
21817;BME280;13247;47.504;7.382;2023-01-26T10:31:59;97663.25;;;1.19;100.00
21817;BME280;13247;47.504;7.382;2023-01-26T10:34:48;97665.78;;;1.12;100.00
21817;BME280;13247;47.504;7.382;2023-01-26T10:37:35;97663.72;;;0.84;100.00
21817;BME280;13247;47.504;7.382;2023-01-26T10:40:20;97669.00;;;0.94;100.00
21817;BME280;13247;47.504;7.382;2023-01-26T10:43:10;97661.84;;;0.69;100.00
21817;BME280;13247;47.504;7.382;2023-01-26T10:46:03;97661.84;;;0.72;100.00
21817;BME280;13247;47.504;7.382;2023-01-26T10:49:15;97662.06;;;0.89;100.00
21817;BME280;13247;47.504;7.382;2023-01-26T10:52:22;97657.75;;;0.89;100.00
21817;BME280;13247;47.504;7.382;2023-01-26T10:55:19;97661.97;;;0.81;100.00
21817;BME280;13247;47.504;7.382;2023-01-26T10:58:04;97653.47;;;0.88;100.00
21817;BME280;13247;47.504;7.382;2023-01-26T11:00:54;97655.91;;;0.77;100.00
21817;BME280;13247;47.504;7.382;2023-01-26T11:03:40;97656.81;;;0.82;100.00
21817;BME280;13247;47.504;7.382;2023-01-26T11:06:28;97641.38;;;0.86;100.00
21817;BME280;13247;47.504;7.382;2023-01-26T11:12:03;97641.44;;;0.93;100.00
21817;BME280;13247;47.504;7.382;2023-01-26T11:15:03;97630.88;;;0.72;100.00
21817;BME280;13247;47.504;7.382;2023-01-26T11:17:59;97625.78;;;0.73;100.00
21817;BME280;13247;47.504;7.382;2023-01-26T11:20:47;97626.59;;;0.72;100.00
21817;BME280;13247;47.504;7.382;2023-01-26T11:23:41;97620.75;;;0.87;100.00
21817;BME280;13247;47.504;7.382;2023-01-26T11:30:13;97615.41;;;0.70;100.00
21817;BME280;13247;47.504;7.382;2023-01-26T11:36:12;97609.41;;;0.71;100.00
21817;BME280;13247;47.504;7.382;2023-01-26T11:42:34;97605.06;;;0.69;100.00
21817;BME280;13247;47.504;7.382;2023-01-26T11:45:43;97609.22;;;0.55;100.00
21817;BME280;13247;47.504;7.382;2023-01-26T11:51:40;97601.59;;;0.65;100.00
21817;BME280;13247;47.504;7.382;2023-01-26T11:57:45;97597.56;;;0.89;100.00
21817;BME280;13247;47.504;7.382;2023-01-26T12:00:42;97596.28;;;0.53;100.00
21817;BME280;13247;47.504;7.382;2023-01-26T12:03:41;97603.56;;;0.89;100.00
21817;BME280;13247;47.504;7.382;2023-01-26T12:06:41;97593.25;;;0.91;100.00
21817;BME280;13247;47.504;7.382;2023-01-26T12:09:35;97592.28;;;0.81;100.00
21817;BME280;13247;47.504;7.382;2023-01-26T12:12:33;97595.63;;;0.72;100.00
21817;BME280;13247;47.504;7.382;2023-01-26T12:15:29;97591.28;;;0.68;100.00
21817;BME280;13247;47.504;7.382;2023-01-26T12:18:40;97588.75;;;0.73;100.00
21817;BME280;13247;47.504;7.382;2023-01-26T12:21:31;97586.06;;;0.61;100.00
21817;BME280;13247;47.504;7.382;2023-01-26T12:24:39;97579.38;;;0.81;100.00
21817;BME280;13247;47.504;7.382;2023-01-26T12:27:33;97576.91;;;0.92;100.00
21817;BME280;13247;47.504;7.382;2023-01-26T12:33:18;97565.66;;;0.84;100.00
21817;BME280;13247;47.504;7.382;2023-01-26T12:36:07;97567.34;;;0.82;100.00
21817;BME280;13247;47.504;7.382;2023-01-26T12:39:18;97570.84;;;0.87;100.00
21817;BME280;13247;47.504;7.382;2023-01-26T12:45:09;97568.22;;;0.84;100.00
21817;BME280;13247;47.504;7.382;2023-01-26T12:48:24;97560.75;;;1.11;100.00
21817;BME280;13247;47.504;7.382;2023-01-26T12:51:24;97551.28;;;1.13;100.00
21817;BME280;13247;47.504;7.382;2023-01-26T12:57:19;97536.81;;;1.28;100.00
21817;BME280;13247;47.504;7.382;2023-01-26T13:00:30;97536.03;;;1.40;100.00
21817;BME280;13247;47.504;7.382;2023-01-26T13:03:22;97528.09;;;1.17;100.00
21817;BME280;13247;47.504;7.382;2023-01-26T13:11:54;97536.50;;;0.95;100.00
21817;BME280;13247;47.504;7.382;2023-01-26T13:23:41;97539.34;;;1.24;100.00
21817;BME280;13247;47.504;7.382;2023-01-26T13:29:28;97528.06;;;1.11;100.00
21817;BME280;13247;47.504;7.382;2023-01-26T13:35:06;97530.56;;;1.04;100.00
21817;BME280;13247;47.504;7.382;2023-01-26T13:38:11;97534.00;;;1.04;100.00
21817;BME280;13247;47.504;7.382;2023-01-26T13:40:57;97544.38;;;1.09;100.00
21817;BME280;13247;47.504;7.382;2023-01-26T13:44:06;97534.94;;;1.09;100.00
21817;BME280;13247;47.504;7.382;2023-01-26T13:46:59;97537.22;;;0.79;100.00
21817;BME280;13247;47.504;7.382;2023-01-26T13:49:45;97539.91;;;0.90;100.00
21817;BME280;13247;47.504;7.382;2023-01-26T13:52:30;97547.44;;;0.70;100.00
21817;BME280;13247;47.504;7.382;2023-01-26T13:55:29;97543.63;;;1.20;100.00
21817;BME280;13247;47.504;7.382;2023-01-26T13:58:17;97539.25;;;1.13;100.00
21817;BME280;13247;47.504;7.382;2023-01-26T14:01:05;97548.63;;;1.02;100.00
21817;BME280;13247;47.504;7.382;2023-01-26T14:04:02;97551.19;;;1.01;100.00
21817;BME280;13247;47.504;7.382;2023-01-26T14:09:46;97541.94;;;1.25;100.00
21817;BME280;13247;47.504;7.382;2023-01-26T14:12:43;97543.59;;;1.17;100.00
21817;BME280;13247;47.504;7.382;2023-01-26T14:15:31;97541.94;;;1.25;100.00
21817;BME280;13247;47.504;7.382;2023-01-26T14:18:20;97547.13;;;1.28;100.00
21817;BME280;13247;47.504;7.382;2023-01-26T14:21:18;97550.31;;;1.00;100.00
21817;BME280;13247;47.504;7.382;2023-01-26T14:24:08;97554.50;;;0.86;100.00
21817;BME280;13247;47.504;7.382;2023-01-26T14:26:54;97549.28;;;0.80;100.00
21817;BME280;13247;47.504;7.382;2023-01-26T14:29:39;97545.84;;;0.82;100.00
21817;BME280;13247;47.504;7.382;2023-01-26T14:32:23;97547.75;;;0.99;100.00
21817;BME280;13247;47.504;7.382;2023-01-26T14:35:19;97550.50;;;1.20;100.00
21817;BME280;13247;47.504;7.382;2023-01-26T14:38:14;97559.72;;;0.94;100.00
21817;BME280;13247;47.504;7.382;2023-01-26T14:41:00;97553.78;;;1.01;100.00
21817;BME280;13247;47.504;7.382;2023-01-26T14:43:45;97546.00;;;0.98;100.00
21817;BME280;13247;47.504;7.382;2023-01-26T14:52:35;97563.94;;;0.86;100.00
21817;BME280;13247;47.504;7.382;2023-01-26T14:55:26;97571.81;;;0.98;100.00
21817;BME280;13247;47.504;7.382;2023-01-26T15:01:05;97568.22;;;0.84;100.00
21817;BME280;13247;47.504;7.382;2023-01-26T15:03:55;97564.78;;;0.82;100.00
21817;BME280;13247;47.504;7.382;2023-01-26T15:06:42;97566.34;;;0.67;100.00
21817;BME280;13247;47.504;7.382;2023-01-26T15:09:27;97568.28;;;0.90;100.00
21817;BME280;13247;47.504;7.382;2023-01-26T15:12:16;97576.03;;;0.87;100.00
21817;BME280;13247;47.504;7.382;2023-01-26T15:15:02;97566.63;;;0.95;100.00
21817;BME280;13247;47.504;7.382;2023-01-26T15:18:03;97564.88;;;0.92;100.00
21817;BME280;13247;47.504;7.382;2023-01-26T15:23:56;97581.13;;;0.84;100.00
21817;BME280;13247;47.504;7.382;2023-01-26T15:26:42;97583.44;;;0.58;100.00
21817;BME280;13247;47.504;7.382;2023-01-26T15:29:30;97575.09;;;0.82;100.00
21817;BME280;13247;47.504;7.382;2023-01-26T15:32:36;97578.31;;;0.62;100.00
21817;BME280;13247;47.504;7.382;2023-01-26T15:35:25;97587.75;;;0.60;100.00
21817;BME280;13247;47.504;7.382;2023-01-26T15:38:12;97580.91;;;0.61;100.00
21817;BME280;13247;47.504;7.382;2023-01-26T15:40:56;97587.13;;;0.78;100.00
21817;BME280;13247;47.504;7.382;2023-01-26T15:43:42;97582.34;;;0.39;100.00
21817;BME280;13247;47.504;7.382;2023-01-26T15:46:26;97586.06;;;0.62;100.00
21817;BME280;13247;47.504;7.382;2023-01-26T15:49:12;97581.03;;;0.74;100.00
21817;BME280;13247;47.504;7.382;2023-01-26T15:51:57;97587.94;;;0.77;100.00
21817;BME280;13247;47.504;7.382;2023-01-26T15:54:42;97586.91;;;0.60;100.00
21817;BME280;13247;47.504;7.382;2023-01-26T15:57:27;97589.75;;;0.84;100.00
21817;BME280;13247;47.504;7.382;2023-01-26T16:00:12;97582.59;;;0.59;100.00
21817;BME280;13247;47.504;7.382;2023-01-26T16:02:59;97586.13;;;0.68;100.00
21817;BME280;13247;47.504;7.382;2023-01-26T16:05:46;97598.16;;;0.68;100.00
21817;BME280;13247;47.504;7.382;2023-01-26T16:08:31;97592.19;;;0.70;100.00
21817;BME280;13247;47.504;7.382;2023-01-26T16:11:16;97593.16;;;0.82;100.00
21817;BME280;13247;47.504;7.382;2023-01-26T16:14:02;97598.78;;;0.44;100.00
21817;BME280;13247;47.504;7.382;2023-01-26T16:16:46;97600.41;;;0.39;100.00
21817;BME280;13247;47.504;7.382;2023-01-26T16:19:31;97611.63;;;0.43;100.00
21817;BME280;13247;47.504;7.382;2023-01-26T16:22:16;97602.44;;;0.64;100.00
21817;BME280;13247;47.504;7.382;2023-01-26T16:25:00;97601.47;;;0.56;100.00
21817;BME280;13247;47.504;7.382;2023-01-26T16:27:44;97605.72;;;0.53;100.00